Home > Products > Valid Products > TAF

000
FTUS41 KRNK 050541
TAFDAN
TAF
KDAN 050541Z 0506/0606 00000KT P6SM OVC090
     FM051000 35004KT 5SM -SHRA BR OVC035
     FM051300 34007KT 4SM SHRA BR OVC015
     FM051900 33010G19KT 4SM -SHRA BR OVC012
     FM060000 30007KT 4SM -SHRA BR OVC015=



000
FTUS41 KRNK 050541
TAFBLF
TAF
KBLF 050541Z 0506/0606 28005KT P6SM -SHRA OVC015
     FM051000 30007KT P6SM VCSH OVC007
     FM051700 30009G18KT 6SM -SHRA OVC015
     FM060000 30008KT 6SM -SHRA BR OVC004=



000
FTUS41 KRNK 050541
TAFLYH
TAF
KLYH 050541Z 0506/0606 03004KT P6SM OVC012
     FM050900 04004KT 4SM -SHRA BR SCT007 OVC012
     FM051400 01005KT 3SM SHRA BR SCT009 OVC015
     FM051900 34007KT 5SM -SHRA BR OVC015
     FM060100 32003KT 2SM -SHRA BR OVC012=



000
FTUS41 KRNK 050541
TAFLWB
TAF
KLWB 050541Z 0506/0606 00000KT P6SM VCSH OVC045
     FM050900 31003KT 3SM -SHRA BR OVC013
      TEMPO 0510/0512 1SM SHRA BR OVC009
     FM051800 30006KT 3SM SHRA BR OVC015
     FM060000 32005KT 5SM -SHRA BR OVC007=



000
FTUS41 KRNK 050541
TAFROA
TAF
KROA 050541Z 0506/0606 33005KT P6SM OVC090
     FM050900 33005KT P6SM -SHRA OVC025
     FM051600 33009KT 5SM SHRA OVC018
     FM051900 32010G18KT P6SM -SHRA OVC025
     FM060000 31005KT 5SM -SHRA BR OVC015=



000
FTUS41 KRNK 050208 AAB
TAFBLF
TAF AMD
KBLF 050208Z 0502/0524 29009KT P6SM -SHRA BKN020 OVC070
     FM050500 28006KT 4SM -SHRA BR OVC012
     FM051100 29008KT P6SM VCSH OVC015
     FM051800 30012G20KT 6SM -SHRA OVC009=



000
FTUS41 KRNK 050144 AAA
TAFBLF
TAF AMD
KBLF 050144Z 0502/0524 31009KT P6SM -SHRA BKN035 OVC070
     FM050500 28006KT 4SM -SHRA BR OVC012
     FM051100 29008KT P6SM VCSH OVC015
     FM051800 30012G20KT 6SM -SHRA OVC009=



000
FTUS41 KRNK 042333
TAFBLF
TAF
KBLF 042333Z 0500/0524 29007KT P6SM -SHRA BKN050 OVC080
     FM050500 28006KT 4SM -SHRA BR OVC012
     FM051100 29008KT P6SM VCSH OVC015
     FM051800 30012G20KT 6SM -SHRA OVC009=



000
FTUS41 KRNK 042333
TAFROA
TAF
KROA 042333Z 0500/0524 28006KT P6SM SCT060 BKN090
     FM050600 34005KT 5SM -SHRA BKN020 OVC040
     FM051100 31012KT P6SM -SHRA OVC015
     FM051800 32014G22KT P6SM -SHRA OVC018=



000
FTUS41 KRNK 042333
TAFLYH
TAF
KLYH 042333Z 0500/0524 25003KT P6SM SCT050 BKN090
     FM050500 02004KT P6SM -SHRA OVC025
     FM050900 03006KT 4SM -SHRA BR OVC012
     FM051400 02008KT 3SM -SHRA BR OVC018
     FM051900 02009KT 5SM -SHRA BR OVC009=



000
FTUS41 KRNK 042333
TAFLWB
TAF
KLWB 042333Z 0500/0524 28007KT P6SM -SHRA BKN050 OVC080
     FM050400 30004KT 4SM -SHRA BR OVC025
     FM050700 31004KT 2SM -SHRA BR OVC012
      TEMPO 0510/0512 1SM SHRA BR OVC009
     FM051500 26006KT 3SM -SHRA OVC015=



000
FTUS41 KRNK 042333
TAFDAN
TAF
KDAN 042333Z 0500/0524 26006KT P6SM SCT040 BKN090
     FM050900 01005KT 6SM -SHRA OVC035
     FM051400 36011KT 4SM -SHRA OVC025
     FM052000 35012G20KT P6SM -SHRA OVC022=



000
FTUS41 KRNK 042333
TAFBLF
TAF
KBLF 042333Z 0500/0524 29007KT P6SM -SHRA BKN050 OVC080
     FM050500 28006KT 4SM -SHRA BR OVC012
     FM051100 29008KT P6SM VCSH OVC015
     FM051800 30012G20KT 6SM -SHRA OVC009=



000
FTUS41 KRNK 042333
TAFROA
TAF
KROA 042333Z 0500/0524 28006KT P6SM SCT060 BKN090
     FM050600 34005KT 5SM -SHRA BKN020 OVC040
     FM051100 31012KT P6SM -SHRA OVC015
     FM051800 32014G22KT P6SM -SHRA OVC018=



000
FTUS41 KRNK 042333
TAFLYH
TAF
KLYH 042333Z 0500/0524 25003KT P6SM SCT050 BKN090
     FM050500 02004KT P6SM -SHRA OVC025
     FM050900 03006KT 4SM -SHRA BR OVC012
     FM051400 02008KT 3SM -SHRA BR OVC018
     FM051900 02009KT 5SM -SHRA BR OVC009=



000
FTUS41 KRNK 042333
TAFLWB
TAF
KLWB 042333Z 0500/0524 28007KT P6SM -SHRA BKN050 OVC080
     FM050400 30004KT 4SM -SHRA BR OVC025
     FM050700 31004KT 2SM -SHRA BR OVC012
      TEMPO 0510/0512 1SM SHRA BR OVC009
     FM051500 26006KT 3SM -SHRA OVC015=



000
FTUS41 KRNK 042333
TAFDAN
TAF
KDAN 042333Z 0500/0524 26006KT P6SM SCT040 BKN090
     FM050900 01005KT 6SM -SHRA OVC035
     FM051400 36011KT 4SM -SHRA OVC025
     FM052000 35012G20KT P6SM -SHRA OVC022=



000
FTUS41 KRNK 041940 AAA
TAFLYH
TAF AMD
KLYH 041940Z 0420/0518 27009KT P6SM VCSH BKN050
     FM050100 25004KT P6SM BKN050
     FM051000 30009KT 4SM -SHRA BR OVC010=



000
FTUS41 KRNK 041940 AAA
TAFLYH
TAF AMD
KLYH 041940Z 0420/0518 27009KT P6SM VCSH BKN050
     FM050100 25004KT P6SM BKN050
     FM051000 30009KT 4SM -SHRA BR OVC010=



000
FTUS41 KRNK 041939 AAA
TAFROA
TAF AMD
KROA 041939Z 0420/0518 24009KT P6SM VCSH BKN045
     FM050000 26004KT P6SM OVC060
     FM050600 32005KT 5SM -SHRA BKN015 OVC060
     FM051000 31012KT P6SM OVC015=



000
FTUS41 KRNK 041939 AAA
TAFROA
TAF AMD
KROA 041939Z 0420/0518 24009KT P6SM VCSH BKN045
     FM050000 26004KT P6SM OVC060
     FM050600 32005KT 5SM -SHRA BKN015 OVC060
     FM051000 31012KT P6SM OVC015=



000
FTUS41 KRNK 041724
TAFDAN
TAF
KDAN 041724Z 0418/0518 24006KT P6SM SCT040
     FM051000 27003KT 4SM -SHRA BR OVC010
     FM051600 32012KT P6SM OVC025=



000
FTUS41 KRNK 041724
TAFROA
TAF
KROA 041724Z 0418/0518 29006KT P6SM VCSH BKN045
     FM050000 26004KT P6SM OVC060
     FM050600 32005KT 5SM -SHRA BKN015 OVC060
     FM051000 31012KT P6SM OVC015=



000
FTUS41 KRNK 041724
TAFLWB
TAF
KLWB 041724Z 0418/0518 28007KT P6SM VCSH BKN040
     FM042300 27005KT P6SM BKN045
     FM050200 30004KT 4SM -SHRA BR OVC015
     FM050800 29007KT 2SM -SHRA BR OVC020=



000
FTUS41 KRNK 041724
TAFLYH
TAF
KLYH 041724Z 0418/0518 24006KT P6SM VCSH BKN050
     FM050100 25004KT P6SM BKN050
     FM051000 30009KT 4SM -SHRA BR OVC010=



000
FTUS41 KRNK 041724
TAFBLF
TAF
KBLF 041724Z 0418/0518 29008KT P6SM BKN040
     FM050200 27005KT 4SM -SHRA BR OVC011
     FM050600 29005KT 2SM -SHRA BR OVC007
     FM051200 29009KT P6SM VCSH FEW007 OVC010=



000
FTUS41 KRNK 041724
TAFDAN
TAF
KDAN 041724Z 0418/0518 24006KT P6SM SCT040
     FM051000 27003KT 4SM -SHRA BR OVC010
     FM051600 32012KT P6SM OVC025=



000
FTUS41 KRNK 041724
TAFROA
TAF
KROA 041724Z 0418/0518 29006KT P6SM VCSH BKN045
     FM050000 26004KT P6SM OVC060
     FM050600 32005KT 5SM -SHRA BKN015 OVC060
     FM051000 31012KT P6SM OVC015=



000
FTUS41 KRNK 041724
TAFLWB
TAF
KLWB 041724Z 0418/0518 28007KT P6SM VCSH BKN040
     FM042300 27005KT P6SM BKN045
     FM050200 30004KT 4SM -SHRA BR OVC015
     FM050800 29007KT 2SM -SHRA BR OVC020=



000
FTUS41 KRNK 041724
TAFLYH
TAF
KLYH 041724Z 0418/0518 24006KT P6SM VCSH BKN050
     FM050100 25004KT P6SM BKN050
     FM051000 30009KT 4SM -SHRA BR OVC010=



000
FTUS41 KRNK 041724
TAFBLF
TAF
KBLF 041724Z 0418/0518 29008KT P6SM BKN040
     FM050200 27005KT 4SM -SHRA BR OVC011
     FM050600 29005KT 2SM -SHRA BR OVC007
     FM051200 29009KT P6SM VCSH FEW007 OVC010=



000
FTUS41 KRNK 041430 AAA
TAFBLF
TAF AMD
KBLF 041430Z 0415/0512 26004KT P6SM VCSH OVC012
      TEMPO 0415/0416 6SM -RA BKN009 BKN025 OVC040
     FM041600 29008KT P6SM BKN025
     FM041800 29008KT P6SM BKN040
     FM050100 29006KT 6SM -SHRA OVC020
     FM050300 27005KT 4SM -SHRA BR OVC011
     FM050600 29005KT 2SM -SHRA BR OVC007=



000
FTUS41 KRNK 041430 AAA
TAFBLF
TAF AMD
KBLF 041430Z 0415/0512 26004KT P6SM VCSH OVC012
      TEMPO 0415/0416 6SM -RA BKN009 BKN025 OVC040
     FM041600 29008KT P6SM BKN025
     FM041800 29008KT P6SM BKN040
     FM050100 29006KT 6SM -SHRA OVC020
     FM050300 27005KT 4SM -SHRA BR OVC011
     FM050600 29005KT 2SM -SHRA BR OVC007=



000
FTUS41 KRNK 041127
TAFROA
TAF
KROA 041127Z 0412/0512 28003KT P6SM OVC060
     FM041800 29006KT P6SM VCSH BKN045
     FM050000 26004KT P6SM SCT060
     FM050700 32005KT 6SM -SHRA SCT018 OVC060=



000
FTUS41 KRNK 041127
TAFLYH
TAF
KLYH 041127Z 0412/0512 30003KT P6SM SCT015 OVC070
     FM041900 24006KT P6SM VCSH BKN050
     FM050100 25004KT P6SM BKN050
     FM051000 30003KT 4SM -SHRA BR SCT020 OVC060=



000
FTUS41 KRNK 041127
TAFDAN
TAF
KDAN 041127Z 0412/0512 33004KT P6SM BKN060
     FM041800 24006KT P6SM SCT040
     FM051000 27003KT P6SM -SHRA OVC060=



000
FTUS41 KRNK 041127
TAFLWB
TAF
KLWB 041127Z 0412/0512 00000KT P6SM SCT007 BKN060
      TEMPO 0412/0413 4SM BR BKN007
     FM041300 27005KT P6SM VCSH OVC020
     FM041600 28007KT P6SM VCSH BKN040
     FM042300 27005KT P6SM BKN045
     FM050300 26004KT 4SM -SHRA BR OVC015
     FM050800 30004KT 2SM -SHRA OVC020=



000
FTUS41 KRNK 041127
TAFBLF
TAF
KBLF 041127Z 0412/0512 26004KT P6SM VCSH OVC012
     FM041600 29008KT P6SM BKN025
     FM041800 29008KT P6SM BKN040
     FM050100 29006KT 6SM -SHRA OVC020
     FM050300 27005KT 4SM -SHRA BR OVC011
     FM050600 29005KT 2SM -SHRA BR OVC007=



000
FTUS41 KRNK 041127
TAFBLF
TAF
KBLF 041127Z 0412/0512 26004KT P6SM VCSH OVC012
     FM041600 29008KT P6SM BKN025
     FM041800 29008KT P6SM BKN040
     FM050100 29006KT 6SM -SHRA OVC020
     FM050300 27005KT 4SM -SHRA BR OVC011
     FM050600 29005KT 2SM -SHRA BR OVC007=



000
FTUS41 KRNK 041127
TAFDAN
TAF
KDAN 041127Z 0412/0512 33004KT P6SM BKN060
     FM041800 24006KT P6SM SCT040
     FM051000 27003KT P6SM -SHRA OVC060=



000
FTUS41 KRNK 041127
TAFLYH
TAF
KLYH 041127Z 0412/0512 30003KT P6SM SCT015 OVC070
     FM041900 24006KT P6SM VCSH BKN050
     FM050100 25004KT P6SM BKN050
     FM051000 30003KT 4SM -SHRA BR SCT020 OVC060=



000
FTUS41 KRNK 041127
TAFROA
TAF
KROA 041127Z 0412/0512 28003KT P6SM OVC060
     FM041800 29006KT P6SM VCSH BKN045
     FM050000 26004KT P6SM SCT060
     FM050700 32005KT 6SM -SHRA SCT018 OVC060=



000
FTUS41 KRNK 041127
TAFLWB
TAF
KLWB 041127Z 0412/0512 00000KT P6SM SCT007 BKN060
      TEMPO 0412/0413 4SM BR BKN007
     FM041300 27005KT P6SM VCSH OVC020
     FM041600 28007KT P6SM VCSH BKN040
     FM042300 27005KT P6SM BKN045
     FM050300 26004KT 4SM -SHRA BR OVC015
     FM050800 30004KT 2SM -SHRA OVC020=



000
FTUS41 KRNK 040949 AAA
TAFLWB
TAF AMD
KLWB 040949Z 0410/0506 00000KT P6SM BKN080
      TEMPO 0410/0412 4SM BR
     FM041300 27005KT P6SM OVC020
     FM041700 29007KT P6SM VCSH BKN045
     FM042300 29004KT P6SM SCT040 BKN100
     FM050300 00000KT 4SM -SHRA BR OVC015=



000
FTUS41 KRNK 040908 AAA
TAFBLF
TAF AMD
KBLF 040908Z 0409/0506 25003KT P6SM SCT015 BKN070
      TEMPO 0409/0412 BKN015
     FM041200 28005KT P6SM OVC020
     FM041700 28010G17KT P6SM BKN040
     FM050000 30005KT 6SM -SHRA OVC030
     FM050300 27005KT 4SM -SHRA BR OVC015=



000
FTUS41 KRNK 040537
TAFLYH
TAF
KLYH 040537Z 0406/0506 32004KT P6SM BKN080
      TEMPO 0409/0411 2SM BR SCT002
     FM041900 25005KT P6SM BKN060
     FM050300 34003KT P6SM BKN060=



000
FTUS41 KRNK 040537
TAFDAN
TAF
KDAN 040537Z 0406/0506 32005KT P6SM BKN060
      TEMPO 0409/0412 2SM BR
     FM041800 26007KT P6SM BKN060
     FM050000 25003KT P6SM SCT060=



000
FTUS41 KRNK 040537
TAFROA
TAF
KROA 040537Z 0406/0506 30003KT P6SM BKN080
      TEMPO 0409/0412 4SM BR
     FM041500 29006KT P6SM BKN045=



000
FTUS41 KRNK 040537
TAFBLF
TAF
KBLF 040537Z 0406/0506 28004KT P6SM FEW017 BKN060
     FM041200 28005KT P6SM OVC020
     FM041700 28010G17KT P6SM BKN040
     FM050000 30005KT 6SM -SHRA OVC030
     FM050300 27005KT 4SM -SHRA BR OVC015=



000
FTUS41 KRNK 040537
TAFLYH
TAF
KLYH 040537Z 0406/0506 32004KT P6SM BKN080
      TEMPO 0409/0411 2SM BR SCT002
     FM041900 25005KT P6SM BKN060
     FM050300 34003KT P6SM BKN060=



000
FTUS41 KRNK 040537
TAFBLF
TAF
KBLF 040537Z 0406/0506 28004KT P6SM FEW017 BKN060
     FM041200 28005KT P6SM OVC020
     FM041700 28010G17KT P6SM BKN040
     FM050000 30005KT 6SM -SHRA OVC030
     FM050300 27005KT 4SM -SHRA BR OVC015=



000
FTUS41 KRNK 040537
TAFLWB
TAF
KLWB 040537Z 0406/0506 00000KT P6SM SCT017 BKN070
     FM040800 00000KT 2SM BR SCT002 BKN015
      TEMPO 0409/0412 1/2SM FG BKN002
     FM041300 27005KT P6SM OVC020
     FM041700 29007KT P6SM VCSH BKN045
     FM042300 29004KT P6SM SCT040 BKN100
     FM050300 00000KT 4SM -SHRA BR OVC015=



000
FTUS41 KRNK 040537
TAFROA
TAF
KROA 040537Z 0406/0506 30003KT P6SM BKN080
      TEMPO 0409/0412 4SM BR
     FM041500 29006KT P6SM BKN045=



000
FTUS41 KRNK 040537
TAFLWB
TAF
KLWB 040537Z 0406/0506 00000KT P6SM SCT017 BKN070
     FM040800 00000KT 2SM BR SCT002 BKN015
      TEMPO 0409/0412 1/2SM FG BKN002
     FM041300 27005KT P6SM OVC020
     FM041700 29007KT P6SM VCSH BKN045
     FM042300 29004KT P6SM SCT040 BKN100
     FM050300 00000KT 4SM -SHRA BR OVC015=



000
FTUS41 KRNK 040537
TAFDAN
TAF
KDAN 040537Z 0406/0506 32005KT P6SM BKN060
      TEMPO 0409/0412 2SM BR
     FM041800 26007KT P6SM BKN060
     FM050000 25003KT P6SM SCT060=



000
FTUS41 KRNK 040308 AAB
TAFDAN
TAF AMD
KDAN 040308Z 0403/0424 28004KT P6SM SCT050 BKN090
     FM040500 31005KT 4SM BR BKN080
      TEMPO 0408/0410 2SM BR
     FM041300 33006KT P6SM SCT060
     FM041800 26008KT P6SM SCT050=



000
FTUS41 KRNK 040226 AAA
TAFLYH
TAF AMD
KLYH 040226Z 0402/0424 00000KT P6SM SCT070
     FM040500 VRB03KT 5SM BR BKN080
      TEMPO 0409/0411 1/2SM FG OVC002
     FM041300 32004KT P6SM OVC070
     FM041700 26005KT P6SM BKN050=



000
FTUS41 KRNK 040226 AAA
TAFROA
TAF AMD
KROA 040226Z 0402/0424 34005KT P6SM SCT080
     FM041500 28009KT P6SM BKN050=



000
FTUS41 KRNK 040226 AAA
TAFLYH
TAF AMD
KLYH 040226Z 0402/0424 00000KT P6SM SCT070
     FM040500 VRB03KT 5SM BR BKN080
      TEMPO 0409/0411 1/2SM FG OVC002
     FM041300 32004KT P6SM OVC070
     FM041700 26005KT P6SM BKN050=



000
FTUS41 KRNK 040150 AAA
TAFLWB
TAF AMD
KLWB 040150Z 0402/0424 30004KT P6SM VCSH BKN025 BKN050
     FM040700 00000KT 1/4SM FG OVC002
     FM041300 27005KT P6SM OVC015
     FM041700 28009KT P6SM OVC050=



000
FTUS41 KRNK 040103 AAA
TAFDAN
TAF AMD
KDAN 040103Z 0401/0424 26004KT P6SM VCSH SCT050 BKN070
     FM040300 31005KT 4SM BR BKN080
      TEMPO 0408/0410 2SM BR
     FM041300 33006KT P6SM SCT060
     FM041800 26008KT P6SM SCT050=



000
FTUS41 KRNK 040006 AAA
TAFBLF
TAF AMD
KBLF 040006Z 0400/0424 31008KT P6SM BKN025 OVC070
      TEMPO 0400/0402 SCT025
     FM040600 28005KT P6SM SCT010 OVC018
     FM041700 28012G20KT P6SM SCT010 OVC035=



000
FTUS41 KRNK 040006 AAA
TAFBLF
TAF AMD
KBLF 040006Z 0400/0424 31008KT P6SM BKN025 OVC070
      TEMPO 0400/0402 SCT025
     FM040600 28005KT P6SM SCT010 OVC018
     FM041700 28012G20KT P6SM SCT010 OVC035=



000
FTUS41 KRNK 032345
TAFDAN
TAF
KDAN 032345Z 0400/0424 VRB03KT P6SM SCT050 BKN070
     FM040300 31005KT 4SM BR BKN080
      TEMPO 0408/0410 2SM BR
     FM041300 33006KT P6SM SCT060
     FM041800 26008KT P6SM SCT050=



000
FTUS41 KRNK 032345
TAFBLF
TAF
KBLF 032345Z 0400/0424 30008KT P6SM BKN025 OVC070
     FM040600 28005KT P6SM SCT010 OVC018
     FM041700 28012G20KT P6SM SCT010 OVC035=



000
FTUS41 KRNK 032345
TAFROA
TAF
KROA 032345Z 0400/0424 30007KT P6SM BKN080
     FM041500 28009KT P6SM BKN050=



000
FTUS41 KRNK 032345
TAFBLF
TAF
KBLF 032345Z 0400/0424 30008KT P6SM BKN025 OVC070
     FM040600 28005KT P6SM SCT010 OVC018
     FM041700 28012G20KT P6SM SCT010 OVC035=



000
FTUS41 KRNK 032345
TAFDAN
TAF
KDAN 032345Z 0400/0424 VRB03KT P6SM SCT050 BKN070
     FM040300 31005KT 4SM BR BKN080
      TEMPO 0408/0410 2SM BR
     FM041300 33006KT P6SM SCT060
     FM041800 26008KT P6SM SCT050=



000
FTUS41 KRNK 032345
TAFROA
TAF
KROA 032345Z 0400/0424 30007KT P6SM BKN080
     FM041500 28009KT P6SM BKN050=



000
FTUS41 KRNK 032345
TAFLWB
TAF
KLWB 032345Z 0400/0424 30006KT P6SM VCSH SCT025 BKN050
     FM040700 00000KT 1/4SM FG OVC002
     FM041300 27005KT P6SM OVC015
     FM041700 28009KT P6SM OVC050=



000
FTUS41 KRNK 032345
TAFLYH
TAF
KLYH 032345Z 0400/0424 16004KT P6SM VCSH BKN070
     FM040500 VRB03KT 5SM BR BKN080
      TEMPO 0408/0410 1/2SM FG OVC002
     FM041300 32004KT P6SM OVC070
     FM041700 26005KT P6SM BKN050=



000
FTUS41 KRNK 032345
TAFLYH
TAF
KLYH 032345Z 0400/0424 16004KT P6SM VCSH BKN070
     FM040500 VRB03KT 5SM BR BKN080
      TEMPO 0408/0410 1/2SM FG OVC002
     FM041300 32004KT P6SM OVC070
     FM041700 26005KT P6SM BKN050=



000
FTUS41 KRNK 032345
TAFLWB
TAF
KLWB 032345Z 0400/0424 30006KT P6SM VCSH SCT025 BKN050
     FM040700 00000KT 1/4SM FG OVC002
     FM041300 27005KT P6SM OVC015
     FM041700 28009KT P6SM OVC050=



000
FTUS41 KRNK 032257 AAD
TAFDAN
TAF AMD
KDAN 032257Z 0323/0418 27007KT P6SM VCTS SCT025 OVC050CB
     FM032330 29007KT P6SM -SHRA OVC040
     FM040000 26008KT 5SM -SHRA SCT010 BKN035
     FM040300 31004KT 5SM BR OVC050
     FM041200 30008KT P6SM BKN050=



000
FTUS41 KRNK 032257 AAD
TAFDAN
TAF AMD
KDAN 032257Z 0323/0418 27007KT P6SM VCTS SCT025 OVC050CB
     FM032330 29007KT P6SM -SHRA OVC040
     FM040000 26008KT 5SM -SHRA SCT010 BKN035
     FM040300 31004KT 5SM BR OVC050
     FM041200 30008KT P6SM BKN050=



000
FTUS41 KRNK 032225 AAC
TAFDAN
TAF AMD
KDAN 032225Z 0322/0418 27007KT P6SM VCTS SCT025CB OVC100
     FM032230 27020G40KT 2SM +TSRAGS OVC025CB
     FM032330 29007KT P6SM -SHRA OVC040
     FM040000 26008KT 5SM -SHRA SCT010 BKN035
     FM040300 31004KT 5SM BR OVC050
     FM041200 30008KT P6SM BKN050=



000
FTUS41 KRNK 032144 AAB
TAFDAN
TAF AMD
KDAN 032144Z 0322/0418 27007KT P6SM VCTS SCT025CB OVC100
     FM032245 27020G40KT 2SM +TSRAGS OVC025CB
     FM032330 29007KT P6SM -SHRA OVC040
     FM040000 26008KT 5SM -SHRA SCT010 BKN035
     FM040300 31004KT 5SM BR OVC050
     FM041200 30008KT P6SM BKN050=



000
FTUS41 KRNK 032058 AAA
TAFBLF
TAF AMD
KBLF 032058Z 0321/0418 28009G18KT P6SM VCSH SCT025 BKN060
     FM040200 30005KT P6SM SCT010 OVC018
     FM041100 29007KT P6SM VCSH OVC010
     FM041500 29007KT P6SM SCT010 BKN025=



000
FTUS41 KRNK 032058 AAA
TAFBLF
TAF AMD
KBLF 032058Z 0321/0418 28009G18KT P6SM VCSH SCT025 BKN060
     FM040200 30005KT P6SM SCT010 OVC018
     FM041100 29007KT P6SM VCSH OVC010
     FM041500 29007KT P6SM SCT010 BKN025=



000
FTUS41 KRNK 032026 AAB
TAFLWB
TAF AMD
KLWB 032026Z 0320/0418 28010G18KT P6SM SCT040 BKN080
      TEMPO 0321/0323 5SM -SHRA BKN025 OVC060
     FM040200 30005KT P6SM SCT010 OVC018
     FM040600 32002KT 3SM BR OVC008
      TEMPO 0408/0412 1/4SM FG OVC002
     FM041200 27005KT P6SM OVC025=



000
FTUS41 KRNK 031951 AAA
TAFROA
TAF AMD
KROA 031951Z 0320/0418 28009KT P6SM VCSH SCT030 BKN100
     FM040000 30006KT P6SM BKN060
     FM041300 31009KT P6SM BKN070
     FM041500 30009KT P6SM OVC035=



000
FTUS41 KRNK 031951 AAA
TAFROA
TAF AMD
KROA 031951Z 0320/0418 28009KT P6SM VCSH SCT030 BKN100
     FM040000 30006KT P6SM BKN060
     FM041300 31009KT P6SM BKN070
     FM041500 30009KT P6SM OVC035=



000
FTUS41 KRNK 031829 AAA
TAFDAN
TAF AMD
KDAN 031829Z 0318/0418 27007KT P6SM VCTS SCT025CB OVC100
      TEMPO 0318/0321 5SM -TSRA OVC025CB
     FM032100 29007KT P6SM VCSH BKN070
     FM040000 26008KT 5SM -SHRA SCT010 BKN035
     FM040300 31004KT 5SM BR OVC050
     FM041200 30008KT P6SM BKN050=



000
FTUS41 KRNK 031829 AAA
TAFDAN
TAF AMD
KDAN 031829Z 0318/0418 27007KT P6SM VCTS SCT025CB OVC100
      TEMPO 0318/0321 5SM -TSRA OVC025CB
     FM032100 29007KT P6SM VCSH BKN070
     FM040000 26008KT 5SM -SHRA SCT010 BKN035
     FM040300 31004KT 5SM BR OVC050
     FM041200 30008KT P6SM BKN050=



000
FTUS41 KRNK 031827 AAA
TAFLWB
TAF AMD
KLWB 031827Z 0318/0418 28006KT P6SM VCTS SCT020CB BKN060
      TEMPO 0318/0321 5SM -TSRA BKN020CB OVC060
     FM040200 30005KT P6SM SCT010 OVC018
     FM040600 32002KT 3SM BR OVC008
      TEMPO 0408/0412 1/4SM FG OVC002
     FM041200 27005KT P6SM OVC025=



000
FTUS41 KRNK 031737
TAFLYH
TAF
KLYH 031737Z 0318/0418 27006KT P6SM VCTS SCT023CB OVC050
     FM040000 29004KT P6SM BKN070
     FM041200 30007KT P6SM OVC070=



000
FTUS41 KRNK 031737
TAFROA
TAF
KROA 031737Z 0318/0418 28008KT P6SM VCSH SCT015 OVC045
     FM031900 28009KT 5SM -SHRA BKN015 OVC045
      TEMPO 0319/0321 3SM -TSRA OVC015CB
     FM040000 30006KT P6SM BKN060
     FM041300 31009KT P6SM BKN070
     FM041500 30009KT P6SM OVC035=



000
FTUS41 KRNK 031737
TAFLWB
TAF
KLWB 031737Z 0318/0418 28006KT P6SM VCSH BKN018
     FM040200 30005KT P6SM SCT010 OVC018
     FM040600 32002KT 3SM BR OVC008
      TEMPO 0408/0412 1/4SM FG OVC002
     FM041200 27005KT P6SM OVC025=



000
FTUS41 KRNK 031737
TAFDAN
TAF
KDAN 031737Z 0318/0418 27007KT P6SM VCTS BKN025CB OVC100
      TEMPO 0318/0321 5SM -TSRA OVC025CB
     FM032100 29007KT P6SM VCSH BKN070
     FM040000 26008KT 5SM -SHRA SCT010 BKN035
     FM040300 31004KT 5SM BR OVC050
     FM041200 30008KT P6SM BKN050=



000
FTUS41 KRNK 031737
TAFBLF
TAF
KBLF 031737Z 0318/0418 30008KT P6SM VCSH SCT010 BKN015 OVC025
      TEMPO 0318/0320 5SM -SHRA BKN010 OVC015
     FM040200 30005KT P6SM SCT010 OVC018
     FM041100 29007KT P6SM VCSH OVC010
     FM041500 29007KT P6SM SCT010 BKN025=



000
FTUS41 KRNK 031737
TAFLYH
TAF
KLYH 031737Z 0318/0418 27006KT P6SM VCTS SCT023CB OVC050
     FM040000 29004KT P6SM BKN070
     FM041200 30007KT P6SM OVC070=



000
FTUS41 KRNK 031737
TAFROA
TAF
KROA 031737Z 0318/0418 28008KT P6SM VCSH SCT015 OVC045
     FM031900 28009KT 5SM -SHRA BKN015 OVC045
      TEMPO 0319/0321 3SM -TSRA OVC015CB
     FM040000 30006KT P6SM BKN060
     FM041300 31009KT P6SM BKN070
     FM041500 30009KT P6SM OVC035=



000
FTUS41 KRNK 031737
TAFDAN
TAF
KDAN 031737Z 0318/0418 27007KT P6SM VCTS BKN025CB OVC100
      TEMPO 0318/0321 5SM -TSRA OVC025CB
     FM032100 29007KT P6SM VCSH BKN070
     FM040000 26008KT 5SM -SHRA SCT010 BKN035
     FM040300 31004KT 5SM BR OVC050
     FM041200 30008KT P6SM BKN050=



000
FTUS41 KRNK 031737
TAFBLF
TAF
KBLF 031737Z 0318/0418 30008KT P6SM VCSH SCT010 BKN015 OVC025
      TEMPO 0318/0320 5SM -SHRA BKN010 OVC015
     FM040200 30005KT P6SM SCT010 OVC018
     FM041100 29007KT P6SM VCSH OVC010
     FM041500 29007KT P6SM SCT010 BKN025=



000
FTUS41 KRNK 031737
TAFLWB
TAF
KLWB 031737Z 0318/0418 28006KT P6SM VCSH BKN018
     FM040200 30005KT P6SM SCT010 OVC018
     FM040600 32002KT 3SM BR OVC008
      TEMPO 0408/0412 1/4SM FG OVC002
     FM041200 27005KT P6SM OVC025=



000
FTUS41 KRNK 031502 AAB
TAFLWB
TAF AMD
KLWB 031502Z 0315/0412 28007KT P6SM VCSH BKN018
     FM031600 27005KT 5SM -SHRA SCT007 BKN010
     FM031700 28006KT P6SM VCSH BKN018
     FM040000 30005KT P6SM VCSH SCT010 OVC018=



000
FTUS41 KRNK 031311 AAA
TAFLWB
TAF AMD
KLWB 031311Z 0313/0412 00000KT P6SM SCT007 BKN015 OVC030
      TEMPO 0313/0315 OVC007
     FM031500 28007KT P6SM VCSH BKN018
     FM040000 29005KT P6SM VCSH SCT010 OVC018=



000
FTUS41 KRNK 031309 AAA
TAFDAN
TAF AMD
KDAN 031309Z 0313/0412 23006KT P6SM -RA SCT007 OVC045
      TEMPO 0313/0316 5SM -RA BR OVC007
     FM031600 27007KT P6SM BKN025 OVC100
     FM032100 29007KT P6SM BKN070=



000
FTUS41 KRNK 031305 AAA
TAFLYH
TAF AMD
KLYH 031305Z 0313/0412 VRB04KT P6SM -RA SCT015 BKN060 OVC100
      TEMPO 0313/0315 5SM -RA BR BKN015
     FM031500 27006KT P6SM SCT023 OVC050
     FM040000 29004KT P6SM BKN070=



000
FTUS41 KRNK 031141
TAFLYH
TAF
KLYH 031141Z 0312/0412 23005KT P6SM -RA SCT005 OVC050
      TEMPO 0312/0315 5SM -RA BR BKN005
     FM031600 27006KT P6SM SCT023 OVC050
     FM040000 29004KT P6SM BKN070=



000
FTUS41 KRNK 031141
TAFROA
TAF
KROA 031141Z 0312/0412 28005KT P6SM -RA SCT007 OVC045
     FM031500 28008KT P6SM SCT015 OVC045
     FM040000 30006KT P6SM BKN060=



000
FTUS41 KRNK 031141
TAFDAN
TAF
KDAN 031141Z 0312/0412 23006KT P6SM -RA BKN005 OVC045
      TEMPO 0312/0316 5SM -RA BR OVC005
     FM031700 27007KT P6SM BKN025 OVC100
     FM032100 29007KT P6SM BKN070=



000
FTUS41 KRNK 031141
TAFLWB
TAF
KLWB 031141Z 0312/0412 00000KT 5SM -RA BR SCT005 OVC015
     FM031500 28007KT P6SM VCSH OVC018
     FM040000 29005KT P6SM VCSH SCT010 OVC018=



000
FTUS41 KRNK 031141
TAFBLF
TAF
KBLF 031141Z 0312/0412 29007KT P6SM -RA BKN004 OVC015
     FM031500 30008KT P6SM VCSH SCT004 OVC015
     FM040000 30007KT P6SM VCSH OVC012=



000
FTUS41 KRNK 031046 AAE
TAFBLF
TAF AMD
KBLF 031046Z 0311/0406 28006KT P6SM -RA BKN004 OVC025
      TEMPO 0311/0312 5SM -RA BR
     FM031400 30008KT P6SM VCSH OVC015
     FM040000 30006KT P6SM SCT007 BKN035=



000
FTUS41 KRNK 031046 AAE
TAFBLF
TAF AMD
KBLF 031046Z 0311/0406 28006KT P6SM -RA BKN004 OVC025
      TEMPO 0311/0312 5SM -RA BR
     FM031400 30008KT P6SM VCSH OVC015
     FM040000 30006KT P6SM SCT007 BKN035=



000
FTUS41 KRNK 031044 AAC
TAFROA
TAF AMD
KROA 031044Z 0311/0406 28005KT P6SM -RA BKN007 OVC045
     FM031500 27008KT P6SM BKN050
     FM040000 30007KT P6SM BKN060=



000
FTUS41 KRNK 031044 AAC
TAFROA
TAF AMD
KROA 031044Z 0311/0406 28005KT P6SM -RA BKN007 OVC045
     FM031500 27008KT P6SM BKN050
     FM040000 30007KT P6SM BKN060=



000
FTUS41 KRNK 030945 AAE
TAFLYH
TAF AMD
KLYH 030945Z 0310/0406 22004KT P6SM VCSH SCT015 OVC050
      TEMPO 0310/0312 5SM -RA BR OVC005
     FM031200 26008KT P6SM OVC050
     FM040000 30006KT P6SM BKN060=



000
FTUS41 KRNK 030909 AAB
TAFROA
TAF AMD
KROA 030909Z 0309/0406 26004KT P6SM VCSH OVC050
      TEMPO 0309/0312 5SM -RA BR OVC040
     FM031200 27008KT P6SM BKN050
     FM040000 30007KT P6SM BKN060=



000
FTUS41 KRNK 030909 AAB
TAFROA
TAF AMD
KROA 030909Z 0309/0406 26004KT P6SM VCSH OVC050
      TEMPO 0309/0312 5SM -RA BR OVC040
     FM031200 27008KT P6SM BKN050
     FM040000 30007KT P6SM BKN060=



000
FTUS41 KRNK 030908 AAD
TAFLYH
TAF AMD
KLYH 030908Z 0309/0406 22004KT P6SM VCSH BKN015 OVC050
      TEMPO 0309/0312 5SM -RA BR OVC005
     FM031200 26008KT P6SM OVC050
     FM040000 30006KT P6SM BKN060=



000
FTUS41 KRNK 030907 AAC
TAFDAN
TAF AMD
KDAN 030907Z 0309/0406 VRB03KT P6SM VCSH OVC004
      TEMPO 0309/0312 5SM -RA BR OVC005
     FM031200 25008KT P6SM VCSH OVC040
     FM040000 32007KT P6SM BKN050=



000
FTUS41 KRNK 030906 AAF
TAFLWB
TAF AMD
KLWB 030906Z 0309/0406 00000KT 6SM BR VCSH OVC040
      TEMPO 0309/0312 5SM -RA BR OVC030
     FM031300 28007KT P6SM VCSH OVC025
     FM040000 30004KT P6SM SCT009 BKN040=



000
FTUS41 KRNK 030906 AAD
TAFBLF
TAF AMD
KBLF 030906Z 0309/0406 VRB04KT P6SM VCSH OVC040
      TEMPO 0309/0312 5SM -RA BR OVC030
     FM031200 30008KT P6SM VCSH OVC020
     FM040000 30006KT P6SM SCT007 BKN035=



000
FTUS41 KRNK 030906 AAD
TAFBLF
TAF AMD
KBLF 030906Z 0309/0406 VRB04KT P6SM VCSH OVC040
      TEMPO 0309/0312 5SM -RA BR OVC030
     FM031200 30008KT P6SM VCSH OVC020
     FM040000 30006KT P6SM SCT007 BKN035=



000
FTUS41 KRNK 030805 AAB
TAFDAN
TAF AMD
KDAN 030805Z 0308/0406 VRB03KT P6SM VCSH OVC004
      TEMPO 0308/0312 4SM -RA BR OVC005
     FM031200 25008KT P6SM VCSH OVC040
     FM040000 32007KT P6SM BKN050=



000
FTUS41 KRNK 030805 AAC
TAFLYH
TAF AMD
KLYH 030805Z 0308/0406 22004KT P6SM VCSH BKN005 OVC050
      TEMPO 0308/0312 4SM -RA BR OVC005
     FM031200 26008KT P6SM OVC050
     FM040000 30006KT P6SM BKN060=



000
FTUS41 KRNK 030803 AAA
TAFROA
TAF AMD
KROA 030803Z 0308/0406 26004KT P6SM VCSH OVC050
      TEMPO 0309/0312 5SM -RA BR OVC030
     FM031200 27008KT P6SM BKN050
     FM040000 30007KT P6SM BKN060=



000
FTUS41 KRNK 030803 AAE
TAFLWB
TAF AMD
KLWB 030803Z 0308/0406 00000KT 6SM BR VCSH OVC040
      TEMPO 0309/0312 2SM -RA BR OVC006
     FM031300 28007KT P6SM VCSH OVC025
     FM040000 30004KT P6SM SCT009 BKN040=



000
FTUS41 KRNK 030802 AAC
TAFBLF
TAF AMD
KBLF 030802Z 0308/0406 VRB04KT P6SM VCSH SCT015 OVC040
      TEMPO 0309/0312 3SM -RA BR OVC015
     FM031200 30008KT P6SM VCSH OVC020
     FM040000 30006KT P6SM SCT007 BKN035=



000
FTUS41 KRNK 030738 AAB
TAFLYH
TAF AMD
KLYH 030738Z 0308/0406 22004KT P6SM VCSH BKN005 OVC050
      TEMPO 0308/0312 2SM -RA BR OVC005
     FM031200 26008KT P6SM OVC050
     FM040000 30006KT P6SM BKN060=



000
FTUS41 KRNK 030737 AAD
TAFLWB
TAF AMD
KLWB 030737Z 0308/0406 00000KT 5SM BR VCSH OVC040
      TEMPO 0309/0312 2SM -RA BR OVC006
     FM031300 28007KT P6SM VCSH OVC025
     FM040000 30004KT P6SM SCT009 BKN040=



000
FTUS41 KRNK 030736 AAB
TAFBLF
TAF AMD
KBLF 030736Z 0308/0406 VRB04KT P6SM VCSH SCT015 OVC030
      TEMPO 0309/0312 3SM -RA BR OVC015
     FM031200 30008KT P6SM VCSH OVC020
     FM040000 30006KT P6SM SCT007 BKN035=



000
FTUS41 KRNK 030736 AAB
TAFBLF
TAF AMD
KBLF 030736Z 0308/0406 VRB04KT P6SM VCSH SCT015 OVC030
      TEMPO 0309/0312 3SM -RA BR OVC015
     FM031200 30008KT P6SM VCSH OVC020
     FM040000 30006KT P6SM SCT007 BKN035=



000
FTUS41 KRNK 030715 AAA
TAFBLF
TAF AMD
KBLF 030715Z 0307/0406 VRB04KT P6SM SCT015 OVC030
      TEMPO 0309/0312 3SM BR OVC015
     FM031200 30008KT P6SM VCSH OVC020
     FM040000 30006KT P6SM SCT007 BKN035=



000
FTUS41 KRNK 030714 AAC
TAFLWB
TAF AMD
KLWB 030714Z 0307/0406 00000KT 5SM BR OVC040
      TEMPO 0309/0312 1/4SM FG OVC001
     FM031300 28007KT P6SM VCSH OVC025
     FM040000 30004KT P6SM SCT009 BKN040=



000
FTUS41 KRNK 030713 AAA
TAFDAN
TAF AMD
KDAN 030713Z 0307/0406 VRB03KT 5SM -SHRA BR SCT005 OVC060
      TEMPO 0307/0311 2SM RA BR OVC005
     FM031200 25008KT P6SM VCSH OVC040
     FM040000 32007KT P6SM BKN050=



000
FTUS41 KRNK 030625 AAB
TAFLWB
TAF AMD
KLWB 030625Z 0306/0406 00000KT 3SM BR BKN001 OVC040
      TEMPO 0308/0312 1/4SM FG OVC001
     FM031300 28007KT P6SM VCSH OVC025
     FM040000 30004KT P6SM SCT009 BKN040=



000
FTUS41 KRNK 030624 AAA
TAFLYH
TAF AMD
KLYH 030624Z 0306/0406 22004KT P6SM BKN005 OVC050
      TEMPO 0308/0312 2SM BR OVC005
     FM031200 26008KT P6SM OVC050
     FM040000 30006KT P6SM BKN060=



000
FTUS41 KRNK 030548 AAA
TAFLWB
TAF AMD
KLWB 030548Z 0306/0406 00000KT 3/4SM BR OVC001
      TEMPO 0308/0312 1/4SM FG OVC001
     FM031300 28007KT P6SM VCSH OVC025
     FM040000 30004KT P6SM SCT009 BKN040=



000
FTUS41 KRNK 030548 AAA
TAFLWB
TAF AMD
KLWB 030548Z 0306/0406 00000KT 3/4SM BR OVC001
      TEMPO 0308/0312 1/4SM FG OVC001
     FM031300 28007KT P6SM VCSH OVC025
     FM040000 30004KT P6SM SCT009 BKN040=



000
FTUS41 KRNK 030521
TAFROA
TAF
KROA 030521Z 0306/0406 26004KT P6SM VCSH SCT015 OVC050
      TEMPO 0308/0312 4SM BR OVC015
     FM031200 27008KT P6SM BKN050
     FM040000 30007KT P6SM BKN060=



000
FTUS41 KRNK 030521
TAFBLF
TAF
KBLF 030521Z 0306/0406 VRB04KT P6SM SCT015 OVC040
      TEMPO 0308/0312 3SM BR OVC015
     FM031200 30008KT P6SM VCSH OVC020
     FM040000 30006KT P6SM SCT007 BKN035=



000
FTUS41 KRNK 030521
TAFDAN
TAF
KDAN 030521Z 0306/0406 VRB03KT P6SM -SHRA SCT015 OVC060
      TEMPO 0306/0310 3SM RA BR OVC015
     FM031200 25008KT P6SM VCSH OVC040
     FM040000 32007KT P6SM BKN050=



000
FTUS41 KRNK 030521
TAFLYH
TAF
KLYH 030521Z 0306/0406 22004KT P6SM -SHRA SCT005 OVC060
      TEMPO 0308/0312 2SM BR OVC005
     FM031200 26008KT P6SM OVC050
     FM040000 30006KT P6SM BKN060=



000
FTUS41 KRNK 030521
TAFLWB
TAF
KLWB 030521Z 0306/0406 00000KT P6SM OVC050
     FM030800 00000KT 4SM BR OVC020
      TEMPO 0308/0312 1SM BR OVC004
     FM031300 28007KT P6SM VCSH OVC025
     FM040000 30004KT P6SM SCT009 BKN040=



000
FTUS41 KRNK 030345 AAA
TAFBLF
TAF AMD
KBLF 030345Z 0304/0324 00000KT P6SM SCT015 OVC045
      TEMPO 0304/0306 2SM -RA BR OVC035
     FM030700 29004KT 4SM BR VCSH OVC013
     FM031600 28009KT P6SM SCT007 OVC015
     FM031900 29007KT P6SM BKN025=



000
FTUS41 KRNK 030343 AAD
TAFDAN
TAF AMD
KDAN 030343Z 0304/0324 03005KT 5SM RA BR OVC050
      TEMPO 0304/0306 2SM +RA BR OVC040
     FM030600 22005KT P6SM -SHRA SCT020 OVC050
     FM030800 00000KT 5SM BR VCSH OVC020
     FM031500 26006KT P6SM OVC025
     FM031700 27008KT P6SM SCT035 BKN100=



000
FTUS41 KRNK 030341 AAC
TAFDAN
TAF AMD
KDAN 030341Z 0304/0324 03006KT 2SM RA BR OVC040
     FM030500 22005KT P6SM -SHRA SCT020 OVC050
     FM030800 00000KT 5SM BR VCSH OVC020
     FM031500 26006KT P6SM OVC025
     FM031700 27008KT P6SM SCT035 BKN100=



000
FTUS41 KRNK 030339 AAC
TAFLWB
TAF AMD
KLWB 030339Z 0304/0324 00000KT P6SM OVC060
      TEMPO 0305/0308 4SM BR OVC007
     FM030800 00000KT 1/2SM FG OVC003
     FM031500 27008KT P6SM OVC025
     FM032100 27006KT P6SM BKN035=



000
FTUS41 KRNK 030327 AAB
TAFDAN
TAF AMD
KDAN 030327Z 0303/0324 23007KT P6SM VCTS BKN025CB
      TEMPO 0303/0305 04006KT 2SM +TSRA BR OVC040CB
     FM030500 22005KT 6SM -SHRA VCTS SCT020CB OVC050
     FM030800 00000KT 5SM BR VCSH OVC020
     FM031500 26006KT P6SM OVC025
     FM031700 27008KT P6SM SCT035 BKN100=



000
FTUS41 KRNK 030236 AAB
TAFLWB
TAF AMD
KLWB 030236Z 0303/0324 00000KT 4SM BR SCT007 BKN100
      TEMPO 0303/0307 1SM BR OVC007
     FM030800 00000KT 1/2SM FG OVC003
     FM031500 27008KT P6SM OVC025
     FM032100 27006KT P6SM BKN035=



000
FTUS41 KRNK 030236 AAB
TAFLWB
TAF AMD
KLWB 030236Z 0303/0324 00000KT 4SM BR SCT007 BKN100
      TEMPO 0303/0307 1SM BR OVC007
     FM030800 00000KT 1/2SM FG OVC003
     FM031500 27008KT P6SM OVC025
     FM032100 27006KT P6SM BKN035=



000
FTUS41 KRNK 030220 AAA
TAFLWB
TAF AMD
KLWB 030220Z 0302/0324 00000KT 1SM BR SCT007 BKN100
      TEMPO 0308/0312 1/2SM FG OVC003
     FM031500 27008KT P6SM OVC025
     FM032100 27006KT P6SM BKN035=



000
FTUS41 KRNK 030218 AAA
TAFDAN
TAF AMD
KDAN 030218Z 0302/0324 23008KT P6SM VCTS BKN025CB
      TEMPO 0302/0304 VRB15G25KT 1SM +TSRA BR OVC015CB
     FM030500 22005KT 6SM -SHRA VCTS SCT020CB OVC050
     FM030800 00000KT 5SM BR VCSH OVC020
     FM031500 26006KT P6SM OVC025
     FM031700 27008KT P6SM SCT035 BKN100=



000
FTUS41 KRNK 030217 AAA
TAFLYH
TAF AMD
KLYH 030217Z 0302/0324 VRB04KT P6SM -SHRA BKN060
     FM030800 00000KT 4SM BR VCSH OVC015
      TEMPO 0309/0313 2SM BR SCT004 OVC007
     FM031500 29008KT P6SM SCT025 OVC050=



000
FTUS41 KRNK 030217 AAA
TAFLYH
TAF AMD
KLYH 030217Z 0302/0324 VRB04KT P6SM -SHRA BKN060
     FM030800 00000KT 4SM BR VCSH OVC015
      TEMPO 0309/0313 2SM BR SCT004 OVC007
     FM031500 29008KT P6SM SCT025 OVC050=



000
FTUS41 KRNK 030215 AAA
TAFROA
TAF AMD
KROA 030215Z 0302/0324 VRB04KT P6SM -SHRA BKN070
     FM030600 VRB04KT 6SM -SHRA BR OVC015
      TEMPO 0308/0312 3SM BR SCT007 OVC010
     FM031500 29008KT P6SM SCT015 BKN050=



000
FTUS41 KRNK 030215 AAA
TAFROA
TAF AMD
KROA 030215Z 0302/0324 VRB04KT P6SM -SHRA BKN070
     FM030600 VRB04KT 6SM -SHRA BR OVC015
      TEMPO 0308/0312 3SM BR SCT007 OVC010
     FM031500 29008KT P6SM SCT015 BKN050=



000
FTUS41 KRNK 022340
TAFROA
TAF
KROA 022340Z 0300/0324 24008G15KT 6SM -SHRA VCTS BKN035CB OVC060
      TEMPO 0300/0301 VRB15G25KT 1SM +TSRA BR OVC025CB
     FM030200 22005KT P6SM -SHRA VCTS BKN050CB OVC250
     FM030600 VRB04KT 6SM -SHRA BR OVC015
      TEMPO 0308/0312 3SM BR SCT007 OVC010
     FM031500 29008KT P6SM SCT015 BKN050=



000
FTUS41 KRNK 022340
TAFDAN
TAF
KDAN 022340Z 0300/0324 23008KT P6SM VCTS BKN050CB
      TEMPO 0301/0304 VRB15G25KT 1SM +TSRA BR OVC025CB
     FM030500 22005KT 6SM -SHRA VCTS SCT020CB OVC050
     FM030800 00000KT 5SM BR VCSH OVC020
     FM031500 26006KT P6SM OVC025
     FM031700 27008KT P6SM SCT035 BKN100=



000
FTUS41 KRNK 022340
TAFLYH
TAF
KLYH 022340Z 0300/0324 22009G18KT 5SM SHRA VCTS BKN035CB OVC110
      TEMPO 0300/0303 VRB15G25KT 1SM +TSRA BR OVC025CB
     FM030500 22005KT 6SM -SHRA BR BKN050 OVC250
     FM030800 00000KT 4SM BR VCSH OVC015
      TEMPO 0309/0313 2SM BR SCT004 OVC007
     FM031500 29008KT P6SM SCT025 OVC050=



000
FTUS41 KRNK 022340
TAFBLF
TAF
KBLF 022340Z 0300/0324 VRB05KT 6SM -SHRA SCT015 OVC040
     FM030600 29004KT 4SM BR VCSH OVC013
     FM031600 28009KT P6SM SCT007 OVC015
     FM031900 29007KT P6SM BKN025=



000
FTUS41 KRNK 022340
TAFLWB
TAF
KLWB 022340Z 0300/0324 VRB03KT 6SM -SHRA SCT018 OVC070
     FM030500 VRB03KT 4SM BR VCSH SCT007 OVC015
      TEMPO 0308/0312 1SM BR OVC007
     FM031500 27008KT P6SM OVC025
     FM032100 27006KT P6SM BKN035=



000
FTUS41 KRNK 022340
TAFBLF
TAF
KBLF 022340Z 0300/0324 VRB05KT 6SM -SHRA SCT015 OVC040
     FM030600 29004KT 4SM BR VCSH OVC013
     FM031600 28009KT P6SM SCT007 OVC015
     FM031900 29007KT P6SM BKN025=



000
FTUS41 KRNK 022340
TAFLYH
TAF
KLYH 022340Z 0300/0324 22009G18KT 5SM SHRA VCTS BKN035CB OVC110
      TEMPO 0300/0303 VRB15G25KT 1SM +TSRA BR OVC025CB
     FM030500 22005KT 6SM -SHRA BR BKN050 OVC250
     FM030800 00000KT 4SM BR VCSH OVC015
      TEMPO 0309/0313 2SM BR SCT004 OVC007
     FM031500 29008KT P6SM SCT025 OVC050=



000
FTUS41 KRNK 022340
TAFLWB
TAF
KLWB 022340Z 0300/0324 VRB03KT 6SM -SHRA SCT018 OVC070
     FM030500 VRB03KT 4SM BR VCSH SCT007 OVC015
      TEMPO 0308/0312 1SM BR OVC007
     FM031500 27008KT P6SM OVC025
     FM032100 27006KT P6SM BKN035=



000
FTUS41 KRNK 022340
TAFDAN
TAF
KDAN 022340Z 0300/0324 23008KT P6SM VCTS BKN050CB
      TEMPO 0301/0304 VRB15G25KT 1SM +TSRA BR OVC025CB
     FM030500 22005KT 6SM -SHRA VCTS SCT020CB OVC050
     FM030800 00000KT 5SM BR VCSH OVC020
     FM031500 26006KT P6SM OVC025
     FM031700 27008KT P6SM SCT035 BKN100=



000
FTUS41 KRNK 022340
TAFROA
TAF
KROA 022340Z 0300/0324 24008G15KT 6SM -SHRA VCTS BKN035CB OVC060
      TEMPO 0300/0301 VRB15G25KT 1SM +TSRA BR OVC025CB
     FM030200 22005KT P6SM -SHRA VCTS BKN050CB OVC250
     FM030600 VRB04KT 6SM -SHRA BR OVC015
      TEMPO 0308/0312 3SM BR SCT007 OVC010
     FM031500 29008KT P6SM SCT015 BKN050=



000
FTUS41 KRNK 022204 AAA
TAFDAN
TAF AMD
KDAN 022204Z 0222/0318 23010G20KT 5SM SHRA VCTS BKN050CB
      TEMPO 0222/0302 VRB15G30KT 1SM +TSRA BR OVC025CB
     FM030600 22005KT P6SM -SHRA VCTS BKN050CB OVC250
     FM030800 00000KT 5SM BR VCSH OVC020
     FM031500 26007KT P6SM OVC025=



000
FTUS41 KRNK 022101 AAF
TAFBLF
TAF AMD
KBLF 022101Z 0221/0318 22006KT 3SM -TSRA SCT020CB BKN070
      TEMPO 0221/0222 1/4SM +TSRA FG OVC015CB
     FM022200 27010G20KT 4SM -TSRA OVC025CB
     FM030000 VRB05KT 4SM SHRA BR VCTS BKN015 OVC025CB
     FM030600 29004KT 4SM BR VCSH OVC013
     FM031600 28009KT P6SM SCT007 OVC015=



000
FTUS41 KRNK 022053 AAE
TAFBLF
TAF AMD
KBLF 022053Z 0221/0318 VRB04KT 1 1/2SM +TSRA BR SCT020CB OVC040
      TEMPO 0221/0222 1/4SM +TSRA FG OVC015CB
     FM022200 27010G20KT 4SM -TSRA OVC025CB
     FM030000 VRB05KT 4SM SHRA BR VCTS BKN015 OVC025CB
     FM030600 29004KT 4SM BR VCSH OVC013
     FM031600 28009KT P6SM SCT007 OVC015=



000
FTUS41 KRNK 022042 AAD
TAFBLF
TAF AMD
KBLF 022042Z 0221/0318 24010G20KT 3SM -TSRA SCT015CB OVC035
      TEMPO 0221/0222 1/4SM +TSRA FG OVC015CB
     FM022200 27010G20KT 4SM -TSRA OVC025CB
     FM030000 VRB05KT 4SM SHRA BR VCTS BKN015 OVC025CB
     FM030600 29004KT 4SM BR VCSH OVC013
     FM031600 28009KT P6SM SCT007 OVC015=



000
FTUS41 KRNK 022042 AAD
TAFBLF
TAF AMD
KBLF 022042Z 0221/0318 24010G20KT 3SM -TSRA SCT015CB OVC035
      TEMPO 0221/0222 1/4SM +TSRA FG OVC015CB
     FM022200 27010G20KT 4SM -TSRA OVC025CB
     FM030000 VRB05KT 4SM SHRA BR VCTS BKN015 OVC025CB
     FM030600 29004KT 4SM BR VCSH OVC013
     FM031600 28009KT P6SM SCT007 OVC015=



000
FTUS41 KRNK 022040 AAA
TAFLWB
TAF AMD
KLWB 022040Z 0221/0318 24006KT P6SM BKN035 OVC250
     FM022200 24008G19KT 5SM SHRA VCTS BKN040CB OVC080
      TEMPO 0222/0224 VRB12G25KT 1SM +TSRA BR OVC015CB
     FM030000 26007KT 4SM SHRA BR VCTS BKN018 OVC028CB
     FM030500 VRB03KT 4SM BR VCSH OVC015
     FM031500 27008KT P6SM OVC025=



000
FTUS41 KRNK 022031 AAC
TAFBLF
TAF AMD
KBLF 022031Z 0221/0318 29019G28KT 1SM +TSRA SCT015CB OVC035
      TEMPO 0221/0222 1/4SM +TSRA FG OVC015CB
     FM022200 27010G20KT 4SM -TSRA OVC025CB
     FM030000 VRB05KT 4SM SHRA BR VCTS BKN015 OVC025CB
     FM030600 29004KT 4SM BR VCSH OVC013
     FM031600 28009KT P6SM SCT007 OVC015=



000
FTUS41 KRNK 022031 AAC
TAFBLF
TAF AMD
KBLF 022031Z 0221/0318 29019G28KT 1SM +TSRA SCT015CB OVC035
      TEMPO 0221/0222 1/4SM +TSRA FG OVC015CB
     FM022200 27010G20KT 4SM -TSRA OVC025CB
     FM030000 VRB05KT 4SM SHRA BR VCTS BKN015 OVC025CB
     FM030600 29004KT 4SM BR VCSH OVC013
     FM031600 28009KT P6SM SCT007 OVC015=



000
FTUS41 KRNK 022020 AAB
TAFLYH
TAF AMD
KLYH 022020Z 0220/0318 19008G17KT P6SM VCTS SCT040CB OVC070
     FM022200 22009G18KT 5SM SHRA VCTS BKN035CB OVC110
      TEMPO 0301/0304 VRB15G25KT 1SM +TSRA BR OVC025CB
     FM030600 22005KT P6SM -SHRA VCTS BKN050CB OVC250
     FM030800 00000KT 4SM BR VCSH OVC015
     FM031500 29008KT P6SM SCT025 OVC050=



000
FTUS41 KRNK 021937 AAB
TAFBLF
TAF AMD
KBLF 021937Z 0220/0318 25006KT P6SM VCTS SCT030CB BKN070
     FM022100 27010G20KT 4SM -TSRA OVC025CB
     FM030000 VRB05KT 4SM SHRA BR VCTS BKN015 OVC025CB
     FM030600 29004KT 4SM BR VCSH OVC013
     FM031600 28009KT P6SM SCT007 OVC015=



000
FTUS41 KRNK 021936 AAA
TAFLYH
TAF AMD
KLYH 021936Z 0220/0318 19008G17KT P6SM VCSH SCT040 OVC070
     FM022200 22009G18KT 5SM SHRA VCTS BKN035CB OVC110
      TEMPO 0301/0304 VRB15G25KT 1SM +TSRA BR OVC025CB
     FM030600 22005KT P6SM -SHRA VCTS BKN050CB OVC250
     FM030800 00000KT 4SM BR VCSH OVC015
     FM031500 29008KT P6SM SCT025 OVC050=



000
FTUS41 KRNK 021918 AAA
TAFBLF
TAF AMD
KBLF 021918Z 0219/0318 30011G31KT 1 1/2SM -TSRA SCT016 OVC035CB
      TEMPO 0219/0220 VRB15G30KT 1/4SM +TSRA FG OVC015CB
     FM022100 27010G20KT 4SM -TSRA OVC025CB
     FM030000 VRB05KT 4SM SHRA BR VCTS BKN015 OVC025CB
     FM030600 29004KT 4SM BR VCSH OVC013
     FM031600 28009KT P6SM SCT007 OVC015=



000
FTUS41 KRNK 021722
TAFBLF
TAF
KBLF 021722Z 0218/0318 25011G21KT 6SM SHRA VCTS BKN040CB OVC080
      TEMPO 0220/0224 VRB15G30KT 1SM +TSRA BR OVC015CB
     FM030000 VRB05KT 4SM SHRA BR VCTS BKN015 OVC025CB
     FM030600 29004KT 4SM BR VCSH OVC013
     FM031600 28009KT P6SM SCT007 OVC015=



000
FTUS41 KRNK 021722
TAFDAN
TAF
KDAN 021722Z 0218/0318 25008KT P6SM SCT010 BKN035
     FM022000 23010G20KT 5SM SHRA VCTS BKN050CB
      TEMPO 0301/0304 VRB15G25KT 1SM +TSRA BR OVC025CB
     FM030600 22005KT P6SM -SHRA VCTS BKN050CB OVC250
     FM030800 00000KT 5SM BR VCSH OVC020
     FM031500 26007KT P6SM OVC025=



000
FTUS41 KRNK 021722
TAFROA
TAF
KROA 021722Z 0218/0318 24008G15KT 6SM SHRA VCTS BKN035CB OVC060
      TEMPO 0223/0302 VRB15G25KT 1SM +TSRA BR OVC025CB
     FM030400 22005KT P6SM -SHRA VCTS BKN050CB OVC250
     FM030600 VRB04KT P6SM VCSH OVC015
     FM031500 29008KT P6SM SCT015 BKN050=



000
FTUS41 KRNK 021722
TAFLYH
TAF
KLYH 021722Z 0218/0318 21008KT P6SM SCT040 BKN250
     FM022200 22009G18KT 5SM SHRA VCTS BKN035CB OVC110
      TEMPO 0301/0304 VRB15G25KT 1SM +TSRA BR OVC025CB
     FM030600 22005KT P6SM -SHRA VCTS BKN050CB OVC250
     FM030800 00000KT 4SM BR VCSH OVC015
     FM031500 29008KT P6SM SCT025 OVC050=



000
FTUS41 KRNK 021722
TAFLWB
TAF
KLWB 021722Z 0218/0318 24006G16KT P6SM BKN035 OVC250
     FM021900 24008G19KT 5SM SHRA VCTS BKN040CB OVC080
      TEMPO 0220/0224 VRB12G25KT 1SM +TSRA BR OVC015CB
     FM030000 26007KT 4SM SHRA BR VCTS BKN018 OVC028CB
     FM030500 VRB03KT 4SM BR VCSH OVC015
     FM031500 27008KT P6SM OVC025=



000
FTUS41 KRNK 021412 AAB
TAFDAN
TAF AMD
KDAN 021412Z 0214/0312 VRB04KT P6SM SCT010 BKN035
     FM022000 23010G20KT 5SM SHRA VCTS BKN050CB
      TEMPO 0301/0304 VRB15G25KT 1SM +TSRA BR OVC025CB
     FM030600 22005KT P6SM -SHRA VCTS BKN050CB OVC250
     FM030800 00000KT 5SM BR VCSH OVC020=



000
FTUS41 KRNK 021248 AAA
TAFBLF
TAF AMD
KBLF 021248Z 0213/0312 26007KT P6SM FEW007 SCT020 BKN035
     FM021330 25008KT P6SM BKN035 OVC250
     FM021800 25011G21KT 5SM SHRA VCTS BKN040CB OVC080
      TEMPO 0220/0224 VRB15G30KT 1SM +TSRA BR OVC015CB
     FM030000 VRB05KT 4SM SHRA BR VCTS BKN015 OVC025CB
     FM030600 29004KT 4SM BR VCSH OVC013=



000
FTUS41 KRNK 021247 AAA
TAFLWB
TAF AMD
KLWB 021247Z 0213/0312 20005KT P6SM SCT002 SCT013 BKN025
     FM021400 24006KT P6SM BKN035 OVC250
     FM021900 24008G17KT 5SM SHRA VCTS BKN040CB OVC080
      TEMPO 0220/0224 VRB12G25KT 1SM +TSRA BR OVC015CB
     FM030000 26007KT 4SM SHRA BR VCTS BKN018 OVC028CB
     FM030500 VRB03KT 4SM BR VCSH OVC015=



000
FTUS41 KRNK 021239 AAA
TAFDAN
TAF AMD
KDAN 021239Z 0213/0312 VRB04KT P6SM OVC008
     FM022000 23010G20KT 5SM SHRA VCTS BKN050CB
      TEMPO 0301/0304 VRB15G25KT 1SM +TSRA BR OVC025CB
     FM030600 22005KT P6SM -SHRA VCTS BKN050CB OVC250
     FM030800 00000KT 5SM BR VCSH OVC020=



000
FTUS41 KRNK 021239 AAA
TAFDAN
TAF AMD
KDAN 021239Z 0213/0312 VRB04KT P6SM OVC008
     FM022000 23010G20KT 5SM SHRA VCTS BKN050CB
      TEMPO 0301/0304 VRB15G25KT 1SM +TSRA BR OVC025CB
     FM030600 22005KT P6SM -SHRA VCTS BKN050CB OVC250
     FM030800 00000KT 5SM BR VCSH OVC020=



000
FTUS41 KRNK 021238 AAA
TAFROA
TAF AMD
KROA 021238Z 0213/0312 23008KT P6SM SCT040 BKN250
     FM022100 24010G20KT 5SM SHRA VCTS BKN045CB OVC100
      TEMPO 0223/0302 VRB15G25KT 1SM +TSRA BR OVC025CB
     FM030400 22005KT P6SM -SHRA VCTS BKN050CB OVC250
     FM030600 VRB04KT P6SM VCSH OVC015=



000
FTUS41 KRNK 021237 AAA
TAFLYH
TAF AMD
KLYH 021237Z 0213/0312 21006KT P6SM SCT040 BKN250
     FM022200 22009G18KT 5SM SHRA VCTS BKN050CB OVC110
      TEMPO 0301/0304 VRB15G25KT 1SM +TSRA BR OVC025CB
     FM030600 22005KT P6SM -SHRA VCTS BKN050CB OVC250
     FM030800 00000KT 4SM BR VCSH OVC015=



000
FTUS41 KRNK 021136
TAFLWB
TAF
KLWB 021136Z 0212/0312 00000KT 1/4SM FG VV002
     FM021400 24006KT P6SM BKN035 OVC250
     FM021900 24008G17KT 5SM SHRA VCTS BKN040CB OVC080
      TEMPO 0220/0224 VRB12G25KT 1SM +TSRA BR OVC015CB
     FM030000 26007KT 4SM SHRA BR VCTS BKN018 OVC028CB
     FM030500 VRB03KT 4SM BR VCSH OVC015=



000
FTUS41 KRNK 021136
TAFROA
TAF
KROA 021136Z 0212/0312 00000KT 5SM BR BKN003
     FM021300 23008KT P6SM SCT040 BKN250
     FM022100 24010G20KT 5SM SHRA VCTS BKN045CB OVC100
      TEMPO 0223/0302 VRB15G25KT 1SM +TSRA BR OVC025CB
     FM030400 22005KT P6SM -SHRA VCTS BKN050CB OVC250
     FM030600 VRB04KT P6SM VCSH OVC015=



000
FTUS41 KRNK 021136
TAFBLF
TAF
KBLF 021136Z 0212/0312 24007KT P6SM SCT007 BKN015 OVC250
     FM021330 25008KT P6SM BKN035 OVC250
     FM021800 25011G21KT 5SM SHRA VCTS BKN040CB OVC080
      TEMPO 0220/0224 VRB15G30KT 1SM +TSRA BR OVC015CB
     FM030000 VRB05KT 4SM SHRA BR VCTS BKN015 OVC025CB
     FM030600 29004KT 4SM BR VCSH OVC013=



000
FTUS41 KRNK 021136
TAFDAN
TAF
KDAN 021136Z 0212/0312 00000KT 6SM BR BKN010 OVC250
     FM021300 22006KT P6SM SCT045
     FM022000 23010G20KT 5SM SHRA VCTS BKN050CB
      TEMPO 0301/0304 VRB15G25KT 1SM +TSRA BR OVC025CB
     FM030600 22005KT P6SM -SHRA VCTS BKN050CB OVC250
     FM030800 00000KT 5SM BR VCSH OVC020=



000
FTUS41 KRNK 021136
TAFLYH
TAF
KLYH 021136Z 0212/0312 00000KT 1/4SM FG VV001
     FM021400 21006KT P6SM SCT040 BKN250
     FM022200 22009G18KT 5SM SHRA VCTS BKN050CB OVC110
      TEMPO 0301/0304 VRB15G25KT 1SM +TSRA BR OVC025CB
     FM030600 22005KT P6SM -SHRA VCTS BKN050CB OVC250
     FM030800 00000KT 4SM BR VCSH OVC015=



000
FTUS41 KRNK 020845 AAD
TAFROA
TAF AMD
KROA 020845Z 0209/0306 00000KT 3/4SM BR OVC002
     FM021300 23008KT P6SM SCT040
     FM022000 24010G20KT 5SM SHRA VCTS BKN045CB
     FM030100 22005KT P6SM -SHRA BKN050=



000
FTUS41 KRNK 020845 AAD
TAFDAN
TAF AMD
KDAN 020845Z 0209/0306 00000KT 1/2SM FG OVC001
     FM021300 22006KT P6SM SCT045
     FM022000 23010G20KT 5SM SHRA VCTS BKN050CB
     FM030100 22005KT P6SM -SHRA BKN050=



000
FTUS41 KRNK 020845 AAD
TAFROA
TAF AMD
KROA 020845Z 0209/0306 00000KT 3/4SM BR OVC002
     FM021300 23008KT P6SM SCT040
     FM022000 24010G20KT 5SM SHRA VCTS BKN045CB
     FM030100 22005KT P6SM -SHRA BKN050=



000
FTUS41 KRNK 020844 AAC
TAFBLF
TAF AMD
KBLF 020844Z 0209/0306 24007KT P6SM BKN025
     FM021300 25008KT P6SM BKN035
     FM021900 25010G20KT 5SM SHRA VCTS BKN040CB
     FM022300 VRB03KT P6SM -SHRA BKN045=



000
FTUS41 KRNK 020842 AAC
TAFROA
TAF AMD
KROA 020842Z 0209/0306 00000KT 1SM BR OVC002
     FM021300 23008KT P6SM SCT040
     FM022000 24010G20KT 5SM SHRA VCTS BKN045CB
     FM030100 22005KT P6SM -SHRA BKN050=



000
FTUS41 KRNK 020842 AAC
TAFROA
TAF AMD
KROA 020842Z 0209/0306 00000KT 1SM BR OVC002
     FM021300 23008KT P6SM SCT040
     FM022000 24010G20KT 5SM SHRA VCTS BKN045CB
     FM030100 22005KT P6SM -SHRA BKN050=



000
FTUS41 KRNK 020840 AAC
TAFDAN
TAF AMD
KDAN 020840Z 0209/0306 00000KT 1/2SM FG OVC002
     FM021300 22006KT P6SM SCT045
     FM022000 23010G20KT 5SM SHRA VCTS BKN050CB
     FM030100 22005KT P6SM -SHRA BKN050=



000
FTUS41 KRNK 020839 AAD
TAFLYH
TAF AMD
KLYH 020839Z 0209/0306 00000KT 1/4SM FG OVC001
     FM021300 21006KT P6SM SCT040
     FM022100 22010G20KT 5SM SHRA VCTS BKN050CB
     FM030100 23005KT P6SM -SHRA BKN050=



000
FTUS41 KRNK 020806 AAB
TAFDAN
TAF AMD
KDAN 020806Z 0208/0306 00000KT 2SM BR SCT005
      TEMPO 0208/0212 1/2SM FG OVC004
     FM021300 22006KT P6SM SCT045
     FM022000 23010G20KT 5SM SHRA VCTS BKN050CB
     FM030100 22005KT P6SM -SHRA BKN050=



000
FTUS41 KRNK 020806 AAC
TAFLYH
TAF AMD
KLYH 020806Z 0208/0306 00000KT 1SM BR OVC002
      TEMPO 0208/0212 1/4SM FG OVC001
     FM021300 21006KT P6SM SCT040
     FM022100 22010G20KT 5SM SHRA VCTS BKN050CB
     FM030100 23005KT P6SM -SHRA BKN050=



000
FTUS41 KRNK 020804 AAB
TAFBLF
TAF AMD
KBLF 020804Z 0208/0306 25003KT P6SM BKN025
     FM021300 25008KT P6SM BKN035
     FM021900 25010G20KT 5SM SHRA VCTS BKN040CB
     FM022300 VRB03KT P6SM -SHRA BKN045=



000
FTUS41 KRNK 020744 AAB
TAFROA
TAF AMD
KROA 020744Z 0208/0306 00000KT 4SM BR OVC008
      TEMPO 0208/0212 1SM BR OVC004
     FM021300 23008KT P6SM SCT040
     FM022000 24010G20KT 5SM SHRA VCTS BKN045CB
     FM030100 22005KT P6SM -SHRA BKN050=



000
FTUS41 KRNK 020733 AAA
TAFROA
TAF AMD
KROA 020733Z 0208/0306 00000KT 4SM BR OVC004
     FM021300 23008KT P6SM SCT040
     FM022000 24010G20KT 5SM SHRA VCTS BKN045CB
     FM030100 22005KT P6SM -SHRA BKN050=



000
FTUS41 KRNK 020715 AAB
TAFLYH
TAF AMD
KLYH 020715Z 0207/0306 00000KT 1/4SM FG OVC002
     FM021300 21006KT P6SM SCT040
     FM022100 22010G20KT 5SM SHRA VCTS BKN050CB
     FM030100 23005KT P6SM -SHRA BKN050=



000
FTUS41 KRNK 020709 AAA
TAFLYH
TAF AMD
KLYH 020709Z 0207/0306 00000KT P6SM BKN060
     FM020900 00000KT 1/2SM FG OVC002
     FM021300 21006KT P6SM SCT040
     FM022100 22010G20KT 5SM SHRA VCTS BKN050CB
     FM030100 23005KT P6SM -SHRA BKN050=



000
FTUS41 KRNK 020709 AAA
TAFLYH
TAF AMD
KLYH 020709Z 0207/0306 00000KT P6SM BKN060
     FM020900 00000KT 1/2SM FG OVC002
     FM021300 21006KT P6SM SCT040
     FM022100 22010G20KT 5SM SHRA VCTS BKN050CB
     FM030100 23005KT P6SM -SHRA BKN050=



000
FTUS41 KRNK 020708 AAA
TAFBLF
TAF AMD
KBLF 020708Z 0207/0306 25003KT P6SM BKN050
     FM021300 25008KT P6SM BKN035
     FM021900 25010G20KT 5SM SHRA VCTS BKN040CB
     FM022300 VRB03KT P6SM -SHRA BKN045=



000
FTUS41 KRNK 020645 AAB
TAFLWB
TAF AMD
KLWB 020645Z 0207/0306 00000KT 1/4SM FG OVC002
     FM021300 24006KT P6SM BKN035
     FM021900 24010G18KT 5SM SHRA VCTS BKN040CB
     FM022300 26008KT P6SM -SHRA BKN045=



    US Dept of Commerce
    National Oceanic and Atmospheric Administration
    National Weather Service
    1325 East West Highway
    Silver Spring, MD 20910
    Page Author: NWS Internet Services Team
Disclaimer
Information Quality
Credits
Glossary
Privacy Policy
Freedom of Information Act (FOIA)
About Us
Career Opportunities